createdAt,value
2023-03-15T00:03:21.649Z,6.20
2023-03-15T00:09:16.240Z,6.00
2023-03-15T00:15:34.806Z,6.00
2023-03-15T00:21:53.137Z,6.00
2023-03-15T00:27:48.657Z,6.10
2023-03-15T00:33:43.291Z,6.00
2023-03-15T00:40:02.798Z,6.00
2023-03-15T00:46:21.230Z,6.00
2023-03-15T00:52:15.685Z,6.00
2023-03-15T00:58:11.181Z,6.10
2023-03-15T01:04:29.800Z,6.10
2023-03-15T01:10:48.212Z,6.10
2023-03-15T01:16:42.612Z,6.10
2023-03-15T01:22:37.127Z,6.20
2023-03-15T01:28:57.840Z,6.20
2023-03-15T01:35:16.297Z,6.20
2023-03-15T01:41:13.885Z,6.00
2023-03-15T01:47:08.493Z,5.90
2023-03-15T01:53:40.479Z,5.90
2023-03-15T01:59:59.696Z,6.00
2023-03-15T02:05:54.870Z,5.90
2023-03-15T02:11:50.446Z,5.80
2023-03-15T02:18:08.948Z,5.90
2023-03-15T02:24:50.457Z,5.90
2023-03-15T02:30:46.062Z,5.90
2023-03-15T02:36:40.595Z,5.90
2023-03-15T02:43:05.541Z,6.00
2023-03-15T02:49:24.410Z,6.00
2023-03-15T02:55:19.537Z,6.00
2023-03-15T03:01:14.650Z,5.90
2023-03-15T03:07:33.528Z,6.00
2023-03-15T03:13:51.984Z,6.00
2023-03-15T03:19:46.363Z,5.90
2023-03-15T03:25:40.924Z,5.80
2023-03-15T03:32:00.558Z,5.80
2023-03-15T03:38:19.009Z,5.90
2023-03-15T03:44:13.405Z,5.90
2023-03-15T03:50:08.925Z,5.80
2023-03-15T03:56:39.921Z,5.90
2023-03-15T04:02:58.307Z,5.90
2023-03-15T04:08:52.676Z,5.80
2023-03-15T04:14:47.162Z,5.70
2023-03-15T04:21:10.884Z,5.80
2023-03-15T04:27:29.784Z,5.80
2023-03-15T04:33:27.817Z,5.70
2023-03-15T04:39:22.309Z,5.60
2023-03-15T04:45:40.769Z,5.60
2023-03-15T04:51:59.193Z,5.70
2023-03-15T04:57:53.576Z,5.70
2023-03-15T05:03:48.017Z,5.70
2023-03-15T05:10:07.143Z,5.60
2023-03-15T05:16:26.498Z,5.70
2023-03-15T05:22:26.016Z,5.60
2023-03-15T05:28:24.366Z,5.60
2023-03-15T05:34:43.110Z,5.50
2023-03-15T05:41:02.367Z,5.60
2023-03-15T05:46:56.788Z,5.60
2023-03-15T05:52:52.040Z,5.60
2023-03-15T05:59:22.550Z,5.60
2023-03-15T06:05:40.997Z,5.60
2023-03-15T06:11:35.376Z,5.60
2023-03-15T06:17:29.938Z,5.60
2023-03-15T06:23:48.456Z,5.60
2023-03-15T06:30:07.204Z,5.70
2023-03-15T06:36:02.215Z,5.70
2023-03-15T06:41:58.666Z,5.80
2023-03-15T06:48:17.804Z,6.00
2023-03-15T06:54:36.265Z,6.30
2023-03-15T07:00:31.211Z,7.10
2023-03-15T07:06:27.681Z,6.70
2023-03-15T07:12:46.238Z,6.70
2023-03-15T07:19:04.659Z,6.70
2023-03-15T07:24:59.200Z,6.40
2023-03-15T07:31:04.498Z,6.40
2023-03-15T07:37:22.990Z,6.50
2023-03-15T07:43:41.522Z,6.50
2023-03-15T07:49:35.962Z,6.60
2023-03-15T07:55:31.394Z,6.60
2023-03-15T08:02:03.189Z,6.90
2023-03-15T08:08:21.719Z,7.20
2023-03-15T08:14:16.144Z,7.40
2023-03-15T08:20:20.066Z,7.80
2023-03-15T08:26:41.491Z,7.90
2023-03-15T08:32:59.924Z,8.10
2023-03-15T08:38:54.477Z,8.50
2023-03-15T08:44:48.954Z,8.90
2023-03-15T08:51:09.004Z,9.20
2023-03-15T08:57:33.261Z,9.00
2023-03-15T09:03:27.656Z,8.60
2023-03-15T09:09:22.332Z,8.60
2023-03-15T09:15:40.860Z,8.40
2023-03-15T09:22:10.614Z,8.20
2023-03-15T09:28:11.631Z,7.80
2023-03-15T09:34:06.222Z,7.20
2023-03-15T09:40:35.154Z,7.20
2023-03-15T09:47:05.421Z,7.40
2023-03-15T09:53:04.562Z,7.60
2023-03-15T09:59:00.176Z,8.10
2023-03-15T10:05:43.917Z,8.50
2023-03-15T10:12:06.282Z,8.40
2023-03-15T10:18:19.318Z,8.70
2023-03-15T10:24:41.487Z,9.10
2023-03-15T10:31:00.907Z,9.20
2023-03-15T10:37:19.953Z,9.00
2023-03-15T10:43:14.753Z,8.70
2023-03-15T10:49:10.321Z,8.90
2023-03-15T10:55:34.390Z,9.70
2023-03-15T11:01:53.787Z,10.40
2023-03-15T11:07:55.384Z,10.50
2023-03-15T11:14:00.637Z,10.40
2023-03-15T11:20:31.749Z,10.80
2023-03-15T11:26:53.411Z,10.10
2023-03-15T11:32:47.793Z,10.40
2023-03-15T11:38:45.694Z,10.60
2023-03-15T11:45:15.337Z,10.70
2023-03-15T11:51:34.716Z,10.90
2023-03-15T11:57:29.177Z,10.30
2023-03-15T12:03:28.552Z,10.20
2023-03-15T12:10:05.155Z,9.80
2023-03-15T12:16:24.238Z,10.20
2023-03-15T12:22:18.720Z,10.20
2023-03-15T12:28:42.112Z,10.70
2023-03-15T12:35:09.030Z,10.80
2023-03-15T12:41:37.895Z,10.70
2023-03-15T12:47:43.652Z,11.10
2023-03-15T12:53:42.216Z,10.80
2023-03-15T13:00:06.412Z,10.50
2023-03-15T13:06:24.796Z,10.00
2023-03-15T13:12:19.188Z,9.80
2023-03-15T13:18:19.434Z,9.70
2023-03-15T13:24:59.893Z,10.50
2023-03-15T13:31:28.046Z,10.10
2023-03-15T13:37:25.816Z,9.40
2023-03-15T13:43:30.902Z,9.50
2023-03-15T13:49:52.362Z,9.10
2023-03-15T13:56:14.618Z,9.30
2023-03-15T14:02:16.312Z,9.30
2023-03-15T14:08:31.892Z,9.00
2023-03-15T14:15:02.428Z,9.40
2023-03-15T14:21:21.984Z,10.00
2023-03-15T14:27:17.671Z,10.50
2023-03-15T14:33:55.731Z,10.40
2023-03-15T14:40:21.149Z,10.40
2023-03-15T14:46:40.620Z,10.30
2023-03-15T14:52:35.014Z,10.00
2023-03-15T14:58:29.488Z,10.00
2023-03-15T15:04:48.515Z,10.00
2023-03-15T15:11:10.791Z,10.40
2023-03-15T15:17:05.185Z,10.50
2023-03-15T15:23:01.368Z,10.00
2023-03-15T15:29:19.898Z,9.90
2023-03-15T15:35:38.377Z,10.20
2023-03-15T15:41:33.034Z,10.40
2023-03-15T15:47:27.503Z,10.50
2023-03-15T15:53:45.985Z,10.50
2023-03-15T16:00:06.219Z,10.20
2023-03-15T16:06:00.768Z,10.10
2023-03-15T16:11:56.832Z,9.90
2023-03-15T16:18:27.311Z,10.00
2023-03-15T16:26:36.836Z,10.00
2023-03-15T16:32:43.552Z,9.90
2023-03-15T16:38:38.738Z,9.70
2023-03-15T16:44:57.467Z,9.60
2023-03-15T16:51:16.106Z,9.60
2023-03-15T16:57:21.822Z,9.60
2023-03-15T17:03:17.013Z,9.60
2023-03-15T17:09:35.720Z,9.50
2023-03-15T17:15:54.531Z,9.50
2023-03-15T17:21:49.414Z,9.40
2023-03-15T17:27:44.275Z,9.30
2023-03-15T17:34:02.784Z,9.30
2023-03-15T17:40:25.749Z,9.30
2023-03-15T17:46:21.126Z,9.20
2023-03-15T17:52:17.258Z,9.10
2023-03-15T17:58:35.821Z,9.00
2023-03-15T18:04:54.208Z,9.00
2023-03-15T18:10:50.773Z,9.00
2023-03-15T18:16:45.430Z,9.00
2023-03-15T18:23:17.268Z,9.00
2023-03-15T18:29:35.916Z,8.90
2023-03-15T18:35:32.292Z,8.90
2023-03-15T18:41:26.803Z,8.80
2023-03-15T18:47:45.370Z,8.70
2023-03-15T18:54:07.953Z,8.70
2023-03-15T19:00:02.581Z,8.70
2023-03-15T19:05:57.823Z,8.50
2023-03-15T19:12:16.762Z,8.50
2023-03-15T19:18:40.767Z,8.50
2023-03-15T19:24:36.372Z,8.50
2023-03-15T19:30:32.774Z,8.40
2023-03-15T19:36:53.047Z,8.40
2023-03-15T19:43:11.404Z,8.30
2023-03-15T19:49:11.973Z,8.10
2023-03-15T19:55:08.322Z,8.10
2023-03-15T20:01:27.316Z,8.10
2023-03-15T20:07:46.299Z,8.00
2023-03-15T20:13:41.737Z,8.00
2023-03-15T20:19:36.445Z,7.90
2023-03-15T20:26:11.593Z,7.90
2023-03-15T20:32:30.369Z,7.90
2023-03-15T20:38:24.790Z,7.80
2023-03-15T20:44:19.892Z,7.70
2023-03-15T20:50:38.389Z,7.80
2023-03-15T20:56:56.795Z,7.70
2023-03-15T21:02:51.610Z,7.70
2023-03-15T21:08:46.087Z,7.60
2023-03-15T21:15:05.165Z,7.60
2023-03-15T21:21:23.621Z,7.70
2023-03-15T21:27:18.001Z,7.60
2023-03-15T21:33:12.462Z,7.60
2023-03-15T21:39:31.133Z,7.70
2023-03-15T21:45:49.657Z,7.60
2023-03-15T21:51:46.055Z,7.60
2023-03-15T21:57:40.741Z,7.70
2023-03-15T22:03:59.349Z,7.70
2023-03-15T22:10:19.730Z,7.70
2023-03-15T22:16:14.141Z,7.60
2023-03-15T22:22:08.755Z,7.70
2023-03-15T22:28:39.291Z,7.70
2023-03-15T22:34:57.679Z,7.70
2023-03-15T22:40:59.088Z,7.70
2023-03-15T22:46:53.584Z,7.60
2023-03-15T22:53:12.068Z,7.60
2023-03-15T22:59:30.568Z,7.60
2023-03-15T23:05:25.241Z,7.60
2023-03-15T23:11:19.806Z,7.60
2023-03-15T23:17:38.545Z,7.60
2023-03-15T23:23:57.923Z,7.60
2023-03-15T23:29:55.124Z,7.60
2023-03-15T23:35:50.139Z,7.60
2023-03-15T23:42:08.885Z,7.60
2023-03-15T23:48:27.346Z,7.60
2023-03-15T23:54:22.048Z,7.60
